sensor_id;sensor_type;location;lat;lon;timestamp;pressure;altitude;pressure_sealevel;temperature;humidity
18167;BME280;9208;42.688;23.404;2023-05-20T00:02:07;95778.38;;;14.53;100.00
18167;BME280;9208;42.688;23.404;2023-05-20T00:04:32;95782.13;;;14.55;100.00
18167;BME280;9208;42.688;23.404;2023-05-20T00:06:58;95792.16;;;14.53;100.00
18167;BME280;9208;42.688;23.404;2023-05-20T00:09:26;95783.88;;;14.53;100.00
18167;BME280;9208;42.688;23.404;2023-05-20T00:11:52;95790.13;;;14.53;100.00
18167;BME280;9208;42.688;23.404;2023-05-20T00:14:17;95792.91;;;14.53;100.00
18167;BME280;9208;42.688;23.404;2023-05-20T00:16:43;95786.63;;;14.47;100.00
18167;BME280;9208;42.688;23.404;2023-05-20T00:19:08;95787.59;;;14.39;100.00
18167;BME280;9208;42.688;23.404;2023-05-20T00:21:34;95789.81;;;14.35;100.00
18167;BME280;9208;42.688;23.404;2023-05-20T00:23:59;95779.50;;;14.30;100.00
18167;BME280;9208;42.688;23.404;2023-05-20T00:26:25;95779.75;;;14.32;100.00
18167;BME280;9208;42.688;23.404;2023-05-20T00:28:51;95770.69;;;14.20;100.00
18167;BME280;9208;42.688;23.404;2023-05-20T00:31:16;95760.19;;;14.24;100.00
18167;BME280;9208;42.688;23.404;2023-05-20T00:33:42;95766.88;;;14.18;100.00
18167;BME280;9208;42.688;23.404;2023-05-20T00:36:07;95762.09;;;14.13;100.00
18167;BME280;9208;42.688;23.404;2023-05-20T00:38:33;95767.31;;;14.11;100.00
18167;BME280;9208;42.688;23.404;2023-05-20T00:40:59;95760.56;;;14.06;100.00
18167;BME280;9208;42.688;23.404;2023-05-20T00:43:25;95760.59;;;14.12;100.00
18167;BME280;9208;42.688;23.404;2023-05-20T00:45:54;95762.78;;;14.02;100.00
18167;BME280;9208;42.688;23.404;2023-05-20T00:48:20;95749.03;;;14.08;100.00
18167;BME280;9208;42.688;23.404;2023-05-20T00:50:49;95747.03;;;14.08;100.00
18167;BME280;9208;42.688;23.404;2023-05-20T00:53:16;95748.50;;;14.04;100.00
18167;BME280;9208;42.688;23.404;2023-05-20T00:55:45;95755.28;;;14.03;100.00
18167;BME280;9208;42.688;23.404;2023-05-20T00:58:11;95761.50;;;13.98;100.00
18167;BME280;9208;42.688;23.404;2023-05-20T01:00:37;95752.69;;;13.88;100.00
18167;BME280;9208;42.688;23.404;2023-05-20T01:03:03;95763.66;;;13.83;100.00
18167;BME280;9208;42.688;23.404;2023-05-20T01:05:28;95761.19;;;13.85;100.00
18167;BME280;9208;42.688;23.404;2023-05-20T01:07:54;95763.47;;;13.92;100.00
18167;BME280;9208;42.688;23.404;2023-05-20T01:10:22;95756.94;;;13.89;100.00
18167;BME280;9208;42.688;23.404;2023-05-20T01:12:53;95764.47;;;13.89;100.00
18167;BME280;9208;42.688;23.404;2023-05-20T01:15:23;95762.19;;;13.87;100.00
18167;BME280;9208;42.688;23.404;2023-05-20T01:17:58;95759.16;;;13.85;100.00
18167;BME280;9208;42.688;23.404;2023-05-20T01:20:27;95756.84;;;13.73;100.00
18167;BME280;9208;42.688;23.404;2023-05-20T01:22:54;95758.09;;;13.77;100.00
18167;BME280;9208;42.688;23.404;2023-05-20T01:25:20;95765.31;;;13.69;100.00
18167;BME280;9208;42.688;23.404;2023-05-20T01:27:47;95761.81;;;13.69;100.00
18167;BME280;9208;42.688;23.404;2023-05-20T01:30:13;95757.06;;;13.69;100.00
18167;BME280;9208;42.688;23.404;2023-05-20T01:32:57;95765.28;;;13.64;100.00
18167;BME280;9208;42.688;23.404;2023-05-20T01:35:24;95762.75;;;13.60;100.00
18167;BME280;9208;42.688;23.404;2023-05-20T01:37:51;95770.78;;;13.64;100.00
18167;BME280;9208;42.688;23.404;2023-05-20T01:40:17;95767.56;;;13.65;100.00
18167;BME280;9208;42.688;23.404;2023-05-20T01:42:43;95762.28;;;13.62;100.00
18167;BME280;9208;42.688;23.404;2023-05-20T01:45:10;95755.69;;;13.54;100.00
18167;BME280;9208;42.688;23.404;2023-05-20T01:47:36;95754.22;;;13.58;100.00
18167;BME280;9208;42.688;23.404;2023-05-20T01:50:01;95761.75;;;13.63;100.00
18167;BME280;9208;42.688;23.404;2023-05-20T01:52:27;95743.00;;;13.62;100.00
18167;BME280;9208;42.688;23.404;2023-05-20T01:54:52;95760.50;;;13.59;100.00
18167;BME280;9208;42.688;23.404;2023-05-20T01:57:22;95755.94;;;13.56;100.00
18167;BME280;9208;42.688;23.404;2023-05-20T01:59:48;95760.53;;;13.64;100.00
18167;BME280;9208;42.688;23.404;2023-05-20T02:02:14;95754.06;;;13.73;100.00
18167;BME280;9208;42.688;23.404;2023-05-20T02:04:41;95746.38;;;13.82;100.00
18167;BME280;9208;42.688;23.404;2023-05-20T02:07:08;95753.66;;;13.85;100.00
18167;BME280;9208;42.688;23.404;2023-05-20T02:09:33;95748.84;;;13.80;100.00
18167;BME280;9208;42.688;23.404;2023-05-20T02:11:59;95749.34;;;13.79;100.00
18167;BME280;9208;42.688;23.404;2023-05-20T02:14:24;95746.06;;;13.75;100.00
18167;BME280;9208;42.688;23.404;2023-05-20T02:16:50;95747.53;;;13.70;100.00
18167;BME280;9208;42.688;23.404;2023-05-20T02:19:15;95743.28;;;13.69;100.00
18167;BME280;9208;42.688;23.404;2023-05-20T02:21:48;95739.53;;;13.72;100.00
18167;BME280;9208;42.688;23.404;2023-05-20T02:24:14;95738.25;;;13.68;100.00
18167;BME280;9208;42.688;23.404;2023-05-20T02:26:39;95733.91;;;13.56;100.00
18167;BME280;9208;42.688;23.404;2023-05-20T02:29:05;95744.69;;;13.54;100.00
18167;BME280;9208;42.688;23.404;2023-05-20T02:31:30;95739.38;;;13.50;100.00
18167;BME280;9208;42.688;23.404;2023-05-20T02:33:56;95739.06;;;13.43;100.00
18167;BME280;9208;42.688;23.404;2023-05-20T02:36:21;95742.53;;;13.38;100.00
18167;BME280;9208;42.688;23.404;2023-05-20T02:38:47;95736.53;;;13.39;100.00
18167;BME280;9208;42.688;23.404;2023-05-20T02:41:12;95728.94;;;13.29;100.00
18167;BME280;9208;42.688;23.404;2023-05-20T02:43:38;95736.41;;;13.23;100.00
18167;BME280;9208;42.688;23.404;2023-05-20T02:46:05;95736.31;;;13.12;100.00
18167;BME280;9208;42.688;23.404;2023-05-20T02:48:30;95738.56;;;13.13;100.00
18167;BME280;9208;42.688;23.404;2023-05-20T02:50:58;95745.81;;;13.11;100.00
18167;BME280;9208;42.688;23.404;2023-05-20T02:53:23;95747.53;;;13.08;100.00
18167;BME280;9208;42.688;23.404;2023-05-20T02:55:49;95750.03;;;13.06;100.00
18167;BME280;9208;42.688;23.404;2023-05-20T02:58:14;95747.75;;;13.05;100.00
18167;BME280;9208;42.688;23.404;2023-05-20T03:00:41;95752.72;;;13.01;100.00
18167;BME280;9208;42.688;23.404;2023-05-20T03:03:08;95745.16;;;12.96;100.00
18167;BME280;9208;42.688;23.404;2023-05-20T03:05:34;95748.72;;;13.02;100.00
18167;BME280;9208;42.688;23.404;2023-05-20T03:08:08;95751.22;;;13.00;100.00
18167;BME280;9208;42.688;23.404;2023-05-20T03:10:35;95764.50;;;13.01;100.00
18167;BME280;9208;42.688;23.404;2023-05-20T03:13:00;95769.50;;;13.03;100.00
18167;BME280;9208;42.688;23.404;2023-05-20T03:15:26;95767.28;;;13.07;100.00
18167;BME280;9208;42.688;23.404;2023-05-20T03:17:51;95768.31;;;13.09;100.00
18167;BME280;9208;42.688;23.404;2023-05-20T03:20:17;95773.63;;;13.13;100.00
18167;BME280;9208;42.688;23.404;2023-05-20T03:22:42;95770.34;;;13.14;100.00
18167;BME280;9208;42.688;23.404;2023-05-20T03:25:08;95768.38;;;13.15;100.00
18167;BME280;9208;42.688;23.404;2023-05-20T03:27:34;95762.44;;;13.22;100.00
18167;BME280;9208;42.688;23.404;2023-05-20T03:30:01;95760.41;;;13.17;100.00
18167;BME280;9208;42.688;23.404;2023-05-20T03:32:27;95758.59;;;13.14;100.00
18167;BME280;9208;42.688;23.404;2023-05-20T03:34:52;95773.16;;;13.20;100.00
18167;BME280;9208;42.688;23.404;2023-05-20T03:37:18;95769.16;;;13.21;100.00
18167;BME280;9208;42.688;23.404;2023-05-20T03:39:44;95781.50;;;13.25;100.00
18167;BME280;9208;42.688;23.404;2023-05-20T03:42:09;95776.94;;;13.22;100.00
18167;BME280;9208;42.688;23.404;2023-05-20T03:44:35;95788.97;;;13.25;100.00
18167;BME280;9208;42.688;23.404;2023-05-20T03:47:00;95777.06;;;13.33;100.00
18167;BME280;9208;42.688;23.404;2023-05-20T03:49:26;95777.84;;;13.39;100.00
18167;BME280;9208;42.688;23.404;2023-05-20T03:51:51;95775.09;;;13.39;100.00
18167;BME280;9208;42.688;23.404;2023-05-20T03:54:17;95780.84;;;13.36;100.00
18167;BME280;9208;42.688;23.404;2023-05-20T03:56:42;95791.09;;;13.35;100.00
18167;BME280;9208;42.688;23.404;2023-05-20T03:59:08;95787.19;;;13.47;100.00
18167;BME280;9208;42.688;23.404;2023-05-20T04:01:34;95799.97;;;13.50;100.00
18167;BME280;9208;42.688;23.404;2023-05-20T04:03:59;95793.97;;;13.52;100.00
18167;BME280;9208;42.688;23.404;2023-05-20T04:06:25;95800.56;;;13.60;100.00
18167;BME280;9208;42.688;23.404;2023-05-20T04:08:53;95797.84;;;13.65;100.00
18167;BME280;9208;42.688;23.404;2023-05-20T04:11:18;95798.88;;;13.68;100.00
18167;BME280;9208;42.688;23.404;2023-05-20T04:13:45;95798.16;;;13.73;100.00
18167;BME280;9208;42.688;23.404;2023-05-20T04:16:10;95790.44;;;13.77;100.00
18167;BME280;9208;42.688;23.404;2023-05-20T04:18:39;95786.19;;;13.81;100.00
18167;BME280;9208;42.688;23.404;2023-05-20T04:21:05;95780.25;;;13.88;100.00
18167;BME280;9208;42.688;23.404;2023-05-20T04:23:30;95782.47;;;13.84;100.00
18167;BME280;9208;42.688;23.404;2023-05-20T04:25:56;95792.75;;;13.89;100.00
18167;BME280;9208;42.688;23.404;2023-05-20T04:28:26;95797.31;;;13.92;100.00
18167;BME280;9208;42.688;23.404;2023-05-20T04:30:59;95803.13;;;14.00;100.00
18167;BME280;9208;42.688;23.404;2023-05-20T04:33:26;95806.88;;;14.02;100.00
18167;BME280;9208;42.688;23.404;2023-05-20T04:35:51;95802.91;;;14.09;100.00
18167;BME280;9208;42.688;23.404;2023-05-20T04:38:16;95807.47;;;14.17;100.00
18167;BME280;9208;42.688;23.404;2023-05-20T04:40:42;95811.81;;;14.24;100.00
18167;BME280;9208;42.688;23.404;2023-05-20T04:43:07;95813.88;;;14.34;100.00
18167;BME280;9208;42.688;23.404;2023-05-20T04:45:33;95810.44;;;14.45;100.00
18167;BME280;9208;42.688;23.404;2023-05-20T04:48:00;95813.75;;;14.54;100.00
18167;BME280;9208;42.688;23.404;2023-05-20T04:50:26;95813.78;;;14.65;100.00
18167;BME280;9208;42.688;23.404;2023-05-20T04:52:52;95811.78;;;14.71;100.00
18167;BME280;9208;42.688;23.404;2023-05-20T04:55:18;95818.59;;;14.76;100.00
18167;BME280;9208;42.688;23.404;2023-05-20T04:57:45;95814.84;;;14.84;100.00
18167;BME280;9208;42.688;23.404;2023-05-20T05:00:11;95805.63;;;14.93;100.00
18167;BME280;9208;42.688;23.404;2023-05-20T05:02:37;95813.16;;;14.98;100.00
18167;BME280;9208;42.688;23.404;2023-05-20T05:05:03;95813.66;;;15.02;100.00
18167;BME280;9208;42.688;23.404;2023-05-20T05:07:29;95809.44;;;15.12;100.00
18167;BME280;9208;42.688;23.404;2023-05-20T05:09:54;95807.19;;;15.16;100.00
18167;BME280;9208;42.688;23.404;2023-05-20T05:12:20;95808.22;;;15.24;100.00
18167;BME280;9208;42.688;23.404;2023-05-20T05:14:45;95807.69;;;15.31;100.00
18167;BME280;9208;42.688;23.404;2023-05-20T05:17:12;95806.97;;;15.36;100.00
18167;BME280;9208;42.688;23.404;2023-05-20T05:19:38;95801.47;;;15.41;100.00
18167;BME280;9208;42.688;23.404;2023-05-20T05:22:03;95808.28;;;15.46;100.00
18167;BME280;9208;42.688;23.404;2023-05-20T05:24:29;95802.72;;;15.51;100.00
18167;BME280;9208;42.688;23.404;2023-05-20T05:26:54;95811.53;;;15.55;100.00
18167;BME280;9208;42.688;23.404;2023-05-20T05:29:20;95802.97;;;15.59;100.00
18167;BME280;9208;42.688;23.404;2023-05-20T05:31:45;95801.50;;;15.63;100.00
18167;BME280;9208;42.688;23.404;2023-05-20T05:34:11;95797.22;;;15.68;100.00
18167;BME280;9208;42.688;23.404;2023-05-20T05:36:38;95797.72;;;15.77;100.00
18167;BME280;9208;42.688;23.404;2023-05-20T05:39:04;95797.47;;;15.81;100.00
18167;BME280;9208;42.688;23.404;2023-05-20T05:41:30;95795.69;;;15.89;100.00
18167;BME280;9208;42.688;23.404;2023-05-20T05:43:57;95795.69;;;15.94;100.00
18167;BME280;9208;42.688;23.404;2023-05-20T05:46:23;95795.44;;;16.03;100.00
18167;BME280;9208;42.688;23.404;2023-05-20T05:48:49;95808.75;;;16.10;100.00
18167;BME280;9208;42.688;23.404;2023-05-20T05:51:15;95796.19;;;16.20;100.00
18167;BME280;9208;42.688;23.404;2023-05-20T05:53:41;95805.72;;;16.30;100.00
18167;BME280;9208;42.688;23.404;2023-05-20T05:56:06;95810.69;;;16.37;100.00
18167;BME280;9208;42.688;23.404;2023-05-20T05:58:32;95797.69;;;16.16;100.00
18167;BME280;9208;42.688;23.404;2023-05-20T06:00:58;95800.94;;;16.25;100.00
18167;BME280;9208;42.688;23.404;2023-05-20T06:03:23;95792.38;;;16.29;100.00
18167;BME280;9208;42.688;23.404;2023-05-20T06:05:49;95793.09;;;16.35;100.00
18167;BME280;9208;42.688;23.404;2023-05-20T06:08:14;95784.06;;;16.40;100.00
18167;BME280;9208;42.688;23.404;2023-05-20T06:10:40;95782.53;;;16.50;100.00
18167;BME280;9208;42.688;23.404;2023-05-20T06:13:05;95785.28;;;16.55;100.00
18167;BME280;9208;42.688;23.404;2023-05-20T06:15:31;95781.00;;;16.60;100.00
18167;BME280;9208;42.688;23.404;2023-05-20T06:17:56;95779.94;;;16.68;100.00
18167;BME280;9208;42.688;23.404;2023-05-20T06:20:22;95782.72;;;16.68;100.00
18167;BME280;9208;42.688;23.404;2023-05-20T06:22:47;95777.66;;;16.72;100.00
18167;BME280;9208;42.688;23.404;2023-05-20T06:25:13;95780.63;;;16.85;100.00
18167;BME280;9208;42.688;23.404;2023-05-20T06:27:38;95781.31;;;16.97;100.00
18167;BME280;9208;42.688;23.404;2023-05-20T06:30:04;95788.53;;;17.11;100.00
18167;BME280;9208;42.688;23.404;2023-05-20T06:32:30;95780.50;;;17.13;100.00
18167;BME280;9208;42.688;23.404;2023-05-20T06:34:55;95782.16;;;17.27;100.00
18167;BME280;9208;42.688;23.404;2023-05-20T06:37:21;95778.59;;;17.32;100.00
18167;BME280;9208;42.688;23.404;2023-05-20T06:39:49;95776.59;;;17.32;100.00
18167;BME280;9208;42.688;23.404;2023-05-20T06:42:20;95772.78;;;17.41;100.00
18167;BME280;9208;42.688;23.404;2023-05-20T06:44:46;95764.66;;;17.48;100.00
18167;BME280;9208;42.688;23.404;2023-05-20T06:47:16;95763.06;;;17.58;100.00
18167;BME280;9208;42.688;23.404;2023-05-20T06:49:42;95770.84;;;17.60;100.00
18167;BME280;9208;42.688;23.404;2023-05-20T06:52:08;95760.25;;;17.64;100.00
18167;BME280;9208;42.688;23.404;2023-05-20T06:54:33;95763.16;;;17.77;100.00
18167;BME280;9208;42.688;23.404;2023-05-20T06:57:07;95766.13;;;17.84;100.00
18167;BME280;9208;42.688;23.404;2023-05-20T06:59:33;95758.28;;;17.88;100.00
18167;BME280;9208;42.688;23.404;2023-05-20T07:02:00;95752.16;;;17.95;100.00
18167;BME280;9208;42.688;23.404;2023-05-20T07:04:25;95759.69;;;18.00;100.00
18167;BME280;9208;42.688;23.404;2023-05-20T07:06:51;95763.91;;;18.07;100.00
18167;BME280;9208;42.688;23.404;2023-05-20T07:09:16;95764.81;;;18.15;100.00
18167;BME280;9208;42.688;23.404;2023-05-20T07:11:41;95755.13;;;18.27;100.00
18167;BME280;9208;42.688;23.404;2023-05-20T07:14:07;95756.00;;;18.41;100.00
18167;BME280;9208;42.688;23.404;2023-05-20T07:16:33;95748.53;;;18.54;100.00
18167;BME280;9208;42.688;23.404;2023-05-20T07:18:59;95752.69;;;18.66;100.00
18167;BME280;9208;42.688;23.404;2023-05-20T07:21:25;95754.28;;;18.80;99.90
18167;BME280;9208;42.688;23.404;2023-05-20T07:23:50;95750.09;;;18.92;98.50
18167;BME280;9208;42.688;23.404;2023-05-20T07:26:16;95752.69;;;19.03;97.17
18167;BME280;9208;42.688;23.404;2023-05-20T07:28:41;95747.75;;;19.15;96.16
18167;BME280;9208;42.688;23.404;2023-05-20T07:31:08;95756.50;;;19.24;94.39
18167;BME280;9208;42.688;23.404;2023-05-20T07:33:33;95763.81;;;19.40;93.39
18167;BME280;9208;42.688;23.404;2023-05-20T07:35:58;95758.09;;;19.51;93.21
18167;BME280;9208;42.688;23.404;2023-05-20T07:38:24;95756.63;;;19.63;92.45
18167;BME280;9208;42.688;23.404;2023-05-20T07:40:49;95754.13;;;19.78;91.86
18167;BME280;9208;42.688;23.404;2023-05-20T07:43:15;95759.50;;;19.89;90.86
18167;BME280;9208;42.688;23.404;2023-05-20T07:45:41;95767.22;;;19.96;89.94
18167;BME280;9208;42.688;23.404;2023-05-20T07:48:06;95773.44;;;20.02;88.72
18167;BME280;9208;42.688;23.404;2023-05-20T07:50:33;95787.75;;;20.12;86.56
18167;BME280;9208;42.688;23.404;2023-05-20T07:52:58;95779.50;;;20.19;85.87
18167;BME280;9208;42.688;23.404;2023-05-20T07:55:24;95779.19;;;20.23;85.37
18167;BME280;9208;42.688;23.404;2023-05-20T07:57:49;95790.13;;;20.34;85.09
18167;BME280;9208;42.688;23.404;2023-05-20T08:00:15;95795.28;;;20.43;83.99
18167;BME280;9208;42.688;23.404;2023-05-20T08:02:40;95788.09;;;20.34;83.06
18167;BME280;9208;42.688;23.404;2023-05-20T08:05:06;95799.66;;;20.38;82.41
18167;BME280;9208;42.688;23.404;2023-05-20T08:07:35;95795.56;;;20.26;82.54
18167;BME280;9208;42.688;23.404;2023-05-20T08:10:00;95792.25;;;20.28;82.87
18167;BME280;9208;42.688;23.404;2023-05-20T08:12:25;95784.78;;;20.36;82.63
18167;BME280;9208;42.688;23.404;2023-05-20T08:14:52;95774.25;;;20.29;83.58
18167;BME280;9208;42.688;23.404;2023-05-20T08:17:18;95772.44;;;20.31;83.49
18167;BME280;9208;42.688;23.404;2023-05-20T08:19:43;95768.38;;;20.32;83.69
18167;BME280;9208;42.688;23.404;2023-05-20T08:22:09;95764.75;;;20.37;83.79
18167;BME280;9208;42.688;23.404;2023-05-20T08:24:35;95762.69;;;20.51;83.15
18167;BME280;9208;42.688;23.404;2023-05-20T08:27:00;95757.38;;;20.53;84.36
18167;BME280;9208;42.688;23.404;2023-05-20T08:29:25;95762.28;;;20.60;83.82
18167;BME280;9208;42.688;23.404;2023-05-20T08:31:51;95751.03;;;20.65;83.69
18167;BME280;9208;42.688;23.404;2023-05-20T08:34:16;95762.41;;;20.67;83.42
18167;BME280;9208;42.688;23.404;2023-05-20T08:36:42;95748.25;;;20.65;83.44
18167;BME280;9208;42.688;23.404;2023-05-20T08:39:09;95754.56;;;20.66;83.18
18167;BME280;9208;42.688;23.404;2023-05-20T08:41:36;95742.78;;;20.60;83.38
18167;BME280;9208;42.688;23.404;2023-05-20T08:44:03;95743.88;;;20.57;83.14
18167;BME280;9208;42.688;23.404;2023-05-20T08:46:30;95741.81;;;20.57;83.65
18167;BME280;9208;42.688;23.404;2023-05-20T08:48:57;95739.25;;;20.59;83.77
18167;BME280;9208;42.688;23.404;2023-05-20T08:51:26;95748.34;;;20.73;83.58
18167;BME280;9208;42.688;23.404;2023-05-20T08:53:51;95746.31;;;20.73;83.24
18167;BME280;9208;42.688;23.404;2023-05-20T08:56:17;95757.47;;;20.73;82.05
18167;BME280;9208;42.688;23.404;2023-05-20T08:58:43;95754.75;;;20.81;82.42
18167;BME280;9208;42.688;23.404;2023-05-20T09:01:11;95761.84;;;20.82;81.99
18167;BME280;9208;42.688;23.404;2023-05-20T09:03:36;95758.50;;;20.83;82.23
18167;BME280;9208;42.688;23.404;2023-05-20T09:06:06;95749.97;;;20.94;82.59
18167;BME280;9208;42.688;23.404;2023-05-20T09:08:32;95749.72;;;21.05;82.21
18167;BME280;9208;42.688;23.404;2023-05-20T09:10:59;95750.97;;;21.17;81.81
18167;BME280;9208;42.688;23.404;2023-05-20T09:13:26;95754.47;;;21.31;81.29
18167;BME280;9208;42.688;23.404;2023-05-20T09:15:53;95748.00;;;21.36;81.44
18167;BME280;9208;42.688;23.404;2023-05-20T09:18:18;95728.19;;;21.39;82.55
18167;BME280;9208;42.688;23.404;2023-05-20T09:20:50;95730.28;;;21.46;82.06
18167;BME280;9208;42.688;23.404;2023-05-20T09:23:18;95733.66;;;21.52;81.40
18167;BME280;9208;42.688;23.404;2023-05-20T09:25:47;95742.19;;;21.47;81.14
18167;BME280;9208;42.688;23.404;2023-05-20T09:28:13;95732.19;;;21.51;81.47
18167;BME280;9208;42.688;23.404;2023-05-20T09:30:38;95729.38;;;21.51;81.36
18167;BME280;9208;42.688;23.404;2023-05-20T09:33:04;95734.84;;;21.57;80.59
18167;BME280;9208;42.688;23.404;2023-05-20T09:35:34;95727.63;;;21.61;80.92
18167;BME280;9208;42.688;23.404;2023-05-20T09:38:03;95733.53;;;21.71;79.81
18167;BME280;9208;42.688;23.404;2023-05-20T09:40:29;95724.72;;;21.67;79.72
18167;BME280;9208;42.688;23.404;2023-05-20T09:43:02;95707.22;;;21.66;81.15
18167;BME280;9208;42.688;23.404;2023-05-20T09:45:28;95700.91;;;21.66;81.81
18167;BME280;9208;42.688;23.404;2023-05-20T09:47:55;95714.75;;;21.71;80.68
18167;BME280;9208;42.688;23.404;2023-05-20T09:50:22;95717.72;;;21.73;80.02
18167;BME280;9208;42.688;23.404;2023-05-20T09:52:51;95709.56;;;21.75;80.25
18167;BME280;9208;42.688;23.404;2023-05-20T09:55:18;95731.34;;;21.77;76.32
18167;BME280;9208;42.688;23.404;2023-05-20T09:57:44;95738.28;;;21.83;76.43
18167;BME280;9208;42.688;23.404;2023-05-20T10:00:11;95718.19;;;21.85;77.99
18167;BME280;9208;42.688;23.404;2023-05-20T10:02:42;95708.94;;;21.90;77.76
18167;BME280;9208;42.688;23.404;2023-05-20T10:05:19;95718.88;;;21.98;76.98
18167;BME280;9208;42.688;23.404;2023-05-20T10:10:24;95710.09;;;21.94;78.49
18167;BME280;9208;42.688;23.404;2023-05-20T10:18:35;95789.41;;;22.19;68.92
18167;BME280;9208;42.688;23.404;2023-05-20T10:21:17;95786.34;;;22.30;68.51
18167;BME280;9208;42.688;23.404;2023-05-20T10:23:43;95794.38;;;22.34;67.71
18167;BME280;9208;42.688;23.404;2023-05-20T10:26:08;95769.56;;;22.30;68.91
18167;BME280;9208;42.688;23.404;2023-05-20T10:28:35;95788.28;;;22.43;68.08
18167;BME280;9208;42.688;23.404;2023-05-20T10:31:02;95788.19;;;22.48;67.38
18167;BME280;9208;42.688;23.404;2023-05-20T10:33:28;95755.63;;;22.58;68.91
18167;BME280;9208;42.688;23.404;2023-05-20T10:35:58;95757.09;;;22.52;69.51
18167;BME280;9208;42.688;23.404;2023-05-20T10:38:23;95767.97;;;22.63;69.07
18167;BME280;9208;42.688;23.404;2023-05-20T10:40:49;95777.09;;;22.63;67.27
18167;BME280;9208;42.688;23.404;2023-05-20T10:43:25;95775.28;;;22.73;67.38
18167;BME280;9208;42.688;23.404;2023-05-20T10:45:53;95768.50;;;22.89;66.91
18167;BME280;9208;42.688;23.404;2023-05-20T10:48:32;95767.91;;;22.83;66.12
18167;BME280;9208;42.688;23.404;2023-05-20T10:50:59;95777.81;;;22.92;65.98
18167;BME280;9208;42.688;23.404;2023-05-20T10:53:29;95761.06;;;22.99;67.05
18167;BME280;9208;42.688;23.404;2023-05-20T10:56:02;95749.91;;;23.07;67.73
18167;BME280;9208;42.688;23.404;2023-05-20T10:58:35;95760.94;;;23.12;65.34
18167;BME280;9208;42.688;23.404;2023-05-20T11:01:01;95772.34;;;23.14;64.32
18167;BME280;9208;42.688;23.404;2023-05-20T11:03:28;95779.44;;;23.15;63.97
18167;BME280;9208;42.688;23.404;2023-05-20T11:05:54;95754.16;;;23.00;66.99
18167;BME280;9208;42.688;23.404;2023-05-20T11:08:20;95714.28;;;22.92;68.95
18167;BME280;9208;42.688;23.404;2023-05-20T11:10:46;95699.56;;;22.99;69.48
18167;BME280;9208;42.688;23.404;2023-05-20T11:13:12;95690.38;;;22.91;71.17
18167;BME280;9208;42.688;23.404;2023-05-20T11:15:38;95649.31;;;22.71;73.58
18167;BME280;9208;42.688;23.404;2023-05-20T11:18:04;95636.78;;;22.57;75.15
18167;BME280;9208;42.688;23.404;2023-05-20T11:20:30;95663.25;;;22.64;70.76
18167;BME280;9208;42.688;23.404;2023-05-20T11:23:00;95701.13;;;22.72;67.29
18167;BME280;9208;42.688;23.404;2023-05-20T11:25:26;95678.22;;;22.74;69.94
18167;BME280;9208;42.688;23.404;2023-05-20T11:27:52;95691.13;;;22.84;67.69
18167;BME280;9208;42.688;23.404;2023-05-20T11:30:19;95675.91;;;22.57;69.55
18167;BME280;9208;42.688;23.404;2023-05-20T11:32:58;95650.75;;;22.57;71.23
18167;BME280;9208;42.688;23.404;2023-05-20T11:35:25;95651.91;;;22.69;71.41
18167;BME280;9208;42.688;23.404;2023-05-20T11:38:00;95622.69;;;22.70;71.73
18167;BME280;9208;42.688;23.404;2023-05-20T11:40:27;95639.75;;;22.59;70.67
18167;BME280;9208;42.688;23.404;2023-05-20T11:42:54;95660.06;;;22.60;68.48
18167;BME280;9208;42.688;23.404;2023-05-20T11:45:21;95637.31;;;22.56;71.65
18167;BME280;9208;42.688;23.404;2023-05-20T11:47:57;95612.94;;;22.56;71.73
18167;BME280;9208;42.688;23.404;2023-05-20T11:50:23;95631.22;;;22.65;71.18
18167;BME280;9208;42.688;23.404;2023-05-20T11:52:56;95603.56;;;22.46;73.07
18167;BME280;9208;42.688;23.404;2023-05-20T11:55:21;95600.97;;;22.48;72.77
18167;BME280;9208;42.688;23.404;2023-05-20T11:57:47;95604.66;;;22.43;72.09
18167;BME280;9208;42.688;23.404;2023-05-20T12:00:12;95598.31;;;22.43;74.33
18167;BME280;9208;42.688;23.404;2023-05-20T12:02:38;95601.09;;;22.43;73.58
18167;BME280;9208;42.688;23.404;2023-05-20T12:05:03;95585.97;;;22.31;74.85
18167;BME280;9208;42.688;23.404;2023-05-20T12:07:29;95572.56;;;22.29;75.50
18167;BME280;9208;42.688;23.404;2023-05-20T12:09:54;95569.41;;;22.33;74.82
18167;BME280;9208;42.688;23.404;2023-05-20T12:12:20;95583.34;;;22.25;73.73
18167;BME280;9208;42.688;23.404;2023-05-20T12:14:45;95586.94;;;22.05;74.49
18167;BME280;9208;42.688;23.404;2023-05-20T12:17:11;95568.31;;;22.00;74.45
18167;BME280;9208;42.688;23.404;2023-05-20T12:19:36;95584.91;;;22.06;73.07
18167;BME280;9208;42.688;23.404;2023-05-20T12:22:02;95614.97;;;22.20;72.28
18167;BME280;9208;42.688;23.404;2023-05-20T12:24:27;95625.94;;;22.18;70.74
18167;BME280;9208;42.688;23.404;2023-05-20T12:26:52;95639.44;;;22.07;69.68
18167;BME280;9208;42.688;23.404;2023-05-20T12:29:18;95643.22;;;22.17;71.41
18167;BME280;9208;42.688;23.404;2023-05-20T12:31:43;95622.94;;;22.16;72.89
18167;BME280;9208;42.688;23.404;2023-05-20T12:34:08;95636.91;;;22.16;71.25
18167;BME280;9208;42.688;23.404;2023-05-20T12:36:34;95668.53;;;22.11;68.23
18167;BME280;9208;42.688;23.404;2023-05-20T12:38:59;95689.66;;;21.99;67.39
18167;BME280;9208;42.688;23.404;2023-05-20T12:41:25;95701.03;;;21.81;67.94
18167;BME280;9208;42.688;23.404;2023-05-20T12:43:50;95683.28;;;21.71;69.21
18167;BME280;9208;42.688;23.404;2023-05-20T12:46:17;95676.72;;;21.68;69.61
18167;BME280;9208;42.688;23.404;2023-05-20T12:48:42;95677.81;;;21.65;69.57
18167;BME280;9208;42.688;23.404;2023-05-20T12:51:08;95660.47;;;21.59;70.29
18167;BME280;9208;42.688;23.404;2023-05-20T12:53:33;95654.00;;;21.64;70.68
18167;BME280;9208;42.688;23.404;2023-05-20T12:55:58;95640.94;;;21.80;71.10
18167;BME280;9208;42.688;23.404;2023-05-20T12:58:24;95637.38;;;21.79;71.31
18167;BME280;9208;42.688;23.404;2023-05-20T13:00:49;95630.03;;;21.89;71.53